Time;durP1;ratioP1;P1;durP2;ratioP2;P2;SDS_P1;SDS_P2;PMS_P1;PMS_P2;Temp;Humidity;BMP_temperature;BMP_pressure;BME280_temperature;BME280_humidity;BME280_pressure;Samples;Min_cycle;Max_cycle;Signal;HPM_P1;HPM_P2
2020/12/25 00:01:29;;;;;;;1.70;1.30;;;5.20;98.20;;;;;;5030683;28;20499;-80
2020/12/25 00:03:57;;;;;;;1.70;1.50;;;5.20;98.20;;;;;;5029490;28;20506;-78
2020/12/25 00:06:26;;;;;;;1.60;1.30;;;5.20;98.20;;;;;;5030283;28;20584;-80
2020/12/25 00:08:53;;;;;;;1.60;1.30;;;5.20;98.20;;;;;;5031941;28;20560;-81
2020/12/25 00:11:20;;;;;;;1.67;1.40;;;5.20;98.20;;;;;;5037589;28;20572;-78
2020/12/25 00:13:46;;;;;;;1.70;1.50;;;5.20;98.20;;;;;;5033067;28;20892;-78
2020/12/25 00:16:13;;;;;;;1.70;1.40;;;5.20;98.20;;;;;;5028338;28;20483;-79
2020/12/25 00:18:44;;;;;;;1.67;1.30;;;5.20;98.20;;;;;;5036644;28;20463;-77
2020/12/25 00:21:12;;;;;;;1.63;1.30;;;5.20;98.20;;;;;;5036729;28;20468;-78
2020/12/25 00:23:39;;;;;;;1.67;1.30;;;5.20;98.20;;;;;;5036624;28;20463;-79
2020/12/25 00:26:06;;;;;;;1.70;1.47;;;5.20;98.20;;;;;;5042493;28;20484;-77
2020/12/25 00:28:33;;;;;;;1.70;1.47;;;5.20;98.20;;;;;;5038810;28;20478;-77
2020/12/25 00:30:59;;;;;;;1.63;1.30;;;5.20;98.20;;;;;;5031865;28;20464;-78
2020/12/25 00:33:26;;;;;;;1.60;1.30;;;5.20;98.20;;;;;;5038808;28;20467;-78
2020/12/25 00:35:52;;;;;;;1.70;1.40;;;5.20;98.20;;;;;;5040583;28;20534;-78
2020/12/25 00:38:19;;;;;;;1.70;1.30;;;5.20;98.20;;;;;;5036743;28;20468;-79
2020/12/25 00:40:45;;;;;;;1.60;1.40;;;5.20;98.20;;;;;;5033032;28;20762;-79
2020/12/25 00:43:12;;;;;;;1.70;1.40;;;5.20;98.20;;;;;;5039080;28;20570;-79
2020/12/25 00:45:39;;;;;;;1.67;1.40;;;5.20;98.20;;;;;;5037171;28;20494;-79
2020/12/25 00:48:06;;;;;;;1.60;1.30;;;5.20;98.20;;;;;;5032874;28;20491;-77
2020/12/25 00:50:32;;;;;;;3.43;3.23;;;5.30;98.20;;;;;;5029725;28;20498;-77
2020/12/25 00:52:59;;;;;;;1.63;1.30;;;5.20;98.20;;;;;;5027450;28;20650;-76
2020/12/25 00:55:25;;;;;;;1.60;1.30;;;5.30;98.20;;;;;;5033877;28;20521;-79
2020/12/25 00:57:52;;;;;;;1.63;1.40;;;5.20;98.20;;;;;;5036104;28;20467;-80
2020/12/25 01:00:18;;;;;;;1.60;1.30;;;5.20;98.20;;;;;;5034806;28;20563;-78
2020/12/25 01:02:45;;;;;;;1.70;1.40;;;5.20;98.20;;;;;;5035969;28;21369;-80
2020/12/25 01:05:12;;;;;;;1.60;1.40;;;5.20;98.20;;;;;;5035003;28;20498;-79
2020/12/25 01:07:38;;;;;;;1.63;1.40;;;5.20;98.20;;;;;;5035387;28;20463;-78
2020/12/25 01:10:04;;;;;;;1.70;1.43;;;5.20;98.20;;;;;;5036011;28;20463;-78
2020/12/25 01:12:31;;;;;;;1.60;1.30;;;5.10;98.20;;;;;;5026246;28;20487;-80
2020/12/25 01:14:57;;;;;;;1.63;1.30;;;5.10;98.20;;;;;;5032709;28;20467;-79
2020/12/25 01:17:24;;;;;;;1.67;1.30;;;5.00;98.20;;;;;;5035796;28;20783;-78
2020/12/25 01:19:51;;;;;;;1.67;1.30;;;5.00;98.20;;;;;;5034259;28;20471;-79
2020/12/25 01:22:17;;;;;;;1.60;1.30;;;4.90;98.20;;;;;;5036062;28;20491;-81
2020/12/25 01:24:46;;;;;;;1.67;1.40;;;4.90;98.20;;;;;;5041628;28;20665;-81
2020/12/25 01:27:12;;;;;;;1.63;1.30;;;4.90;98.20;;;;;;5042037;28;20456;-80
2020/12/25 01:29:39;;;;;;;1.70;1.40;;;4.90;98.20;;;;;;5038177;28;20563;-80
2020/12/25 01:32:05;;;;;;;1.67;1.37;;;4.90;98.20;;;;;;5037993;28;20479;-80
2020/12/25 01:34:31;;;;;;;1.63;1.30;;;4.90;98.20;;;;;;5041288;28;20575;-79
2020/12/25 01:36:59;;;;;;;1.70;1.40;;;4.90;98.20;;;;;;5041683;28;20491;-81
2020/12/25 01:39:25;;;;;;;1.60;1.40;;;4.80;98.20;;;;;;5038122;28;20476;-81
2020/12/25 01:41:51;;;;;;;1.70;1.50;;;4.80;98.20;;;;;;5038105;28;20480;-80
2020/12/25 01:44:18;;;;;;;1.70;1.50;;;4.80;98.20;;;;;;5041438;28;20463;-82
2020/12/25 01:46:44;;;;;;;1.70;1.40;;;4.80;98.20;;;;;;5036182;28;20471;-80
2020/12/25 01:49:11;;;;;;;1.70;1.40;;;4.80;98.20;;;;;;5041421;28;20797;-81
2020/12/25 01:51:38;;;;;;;1.70;1.50;;;4.80;98.20;;;;;;5040544;28;20495;-80
2020/12/25 01:54:06;;;;;;;1.60;1.30;;;4.80;98.20;;;;;;5037854;28;20507;-79
2020/12/25 01:56:32;;;;;;;1.60;1.30;;;4.80;98.20;;;;;;5042626;28;20486;-80
2020/12/25 01:58:59;;;;;;;1.63;1.30;;;4.80;98.20;;;;;;5040672;28;20468;-80
2020/12/25 02:01:26;;;;;;;1.70;1.40;;;4.70;98.20;;;;;;5038888;28;20515;-79
2020/12/25 02:03:52;;;;;;;1.67;1.37;;;4.60;98.20;;;;;;5030870;28;20461;-81
2020/12/25 02:06:18;;;;;;;1.70;1.60;;;4.70;98.20;;;;;;5039160;28;20506;-80
2020/12/25 02:08:45;;;;;;;1.70;1.40;;;4.70;98.20;;;;;;5037938;28;20499;-80
2020/12/25 02:11:13;;;;;;;1.60;1.30;;;4.70;98.20;;;;;;5041677;28;20463;-80
2020/12/25 02:13:39;;;;;;;1.70;1.40;;;4.70;98.20;;;;;;5042048;28;20467;-80
2020/12/25 02:16:07;;;;;;;1.70;1.40;;;4.70;98.20;;;;;;5034077;28;20775;-80
2020/12/25 02:18:36;;;;;;;1.63;1.40;;;4.70;98.20;;;;;;5041607;28;20450;-80
2020/12/25 02:21:04;;;;;;;1.67;1.40;;;4.70;98.20;;;;;;5041212;28;20466;-80
2020/12/25 02:23:31;;;;;;;1.70;1.40;;;4.70;98.20;;;;;;5040718;28;20623;-79
2020/12/25 02:25:57;;;;;;;1.67;1.40;;;4.70;98.20;;;;;;5041997;28;20456;-80
2020/12/25 02:28:24;;;;;;;1.63;1.40;;;4.70;98.20;;;;;;5039186;28;20459;-79
2020/12/25 02:30:50;;;;;;;1.70;1.40;;;4.70;98.20;;;;;;5039946;28;20471;-78
2020/12/25 02:33:17;;;;;;;1.70;1.40;;;4.70;98.20;;;;;;5040820;28;20510;-80
2020/12/25 02:35:43;;;;;;;1.70;1.50;;;4.70;98.20;;;;;;5040471;28;20488;-79
2020/12/25 02:38:10;;;;;;;1.70;1.40;;;4.70;98.20;;;;;;5039514;28;20460;-79
2020/12/25 02:40:37;;;;;;;1.70;1.40;;;4.70;98.20;;;;;;5040878;28;20448;-80
2020/12/25 02:43:03;;;;;;;1.70;1.50;;;4.70;98.20;;;;;;5036118;28;20483;-81
2020/12/25 02:45:30;;;;;;;1.70;1.43;;;4.60;98.20;;;;;;5039855;28;20491;-80
2020/12/25 02:47:56;;;;;;;1.70;1.40;;;4.60;98.20;;;;;;5037888;28;20468;-80
2020/12/25 02:50:22;;;;;;;1.70;1.43;;;4.60;98.20;;;;;;5039969;28;20467;-80
2020/12/25 02:52:49;;;;;;;1.70;1.40;;;4.50;98.20;;;;;;5043964;28;20497;-80
2020/12/25 02:55:16;;;;;;;1.70;1.53;;;4.50;98.20;;;;;;5042895;28;20460;-80
2020/12/25 02:57:43;;;;;;;1.70;1.40;;;4.50;98.20;;;;;;5041043;28;20490;-80
2020/12/25 03:00:09;;;;;;;1.70;1.40;;;4.50;98.20;;;;;;5038199;28;20490;-81
2020/12/25 03:02:35;;;;;;;1.70;1.40;;;4.50;98.20;;;;;;5040959;28;20986;-80
2020/12/25 03:05:02;;;;;;;1.70;1.40;;;4.50;98.20;;;;;;5037553;28;20764;-79
2020/12/25 03:07:29;;;;;;;1.63;1.40;;;4.40;98.20;;;;;;5038493;28;20468;-81
2020/12/25 03:09:55;;;;;;;1.60;1.30;;;4.40;98.20;;;;;;5036767;28;20471;-80
2020/12/25 03:12:22;;;;;;;1.67;1.40;;;4.40;98.20;;;;;;5039068;28;20495;-80
2020/12/25 03:14:50;;;;;;;1.63;1.40;;;4.50;98.20;;;;;;5037208;28;20483;-80
2020/12/25 03:17:16;;;;;;;1.63;1.30;;;4.50;98.20;;;;;;5042201;28;20483;-80
2020/12/25 03:19:42;;;;;;;1.63;1.40;;;4.40;98.20;;;;;;5043306;28;20862;-79
2020/12/25 03:22:09;;;;;;;1.70;1.43;;;4.40;98.20;;;;;;5041015;28;20491;-79
2020/12/25 03:24:35;;;;;;;1.70;1.57;;;4.40;98.20;;;;;;5046323;28;20966;-80
2020/12/25 03:27:02;;;;;;;1.70;1.50;;;4.40;98.20;;;;;;5043625;28;20463;-80
2020/12/25 03:29:29;;;;;;;1.70;1.40;;;4.40;98.20;;;;;;5040995;28;20495;-79
2020/12/25 03:31:55;;;;;;;1.67;1.30;;;4.40;98.20;;;;;;5040873;28;20475;-79
2020/12/25 03:34:22;;;;;;;1.67;1.40;;;4.40;98.20;;;;;;5042682;28;20829;-78
2020/12/25 03:36:49;;;;;;;1.63;1.40;;;4.30;98.20;;;;;;5043691;28;20492;-79
2020/12/25 03:39:15;;;;;;;1.80;1.70;;;4.30;98.20;;;;;;5041959;28;20468;-81
2020/12/25 03:41:42;;;;;;;1.67;1.40;;;4.30;98.20;;;;;;5037531;28;20537;-81
2020/12/25 03:44:08;;;;;;;1.70;1.40;;;4.30;98.20;;;;;;5042423;28;20494;-80
2020/12/25 03:46:36;;;;;;;1.70;1.37;;;4.30;98.20;;;;;;5034537;28;20476;-81
2020/12/25 03:49:04;;;;;;;1.70;1.53;;;4.30;98.20;;;;;;5037137;28;20511;-80
2020/12/25 03:51:31;;;;;;;1.70;1.53;;;4.30;98.20;;;;;;5037808;28;20494;-81
2020/12/25 03:53:57;;;;;;;1.67;1.40;;;4.30;98.20;;;;;;5043754;28;20456;-80
2020/12/25 03:56:24;;;;;;;1.70;1.40;;;4.30;98.20;;;;;;5047497;28;20522;-80
2020/12/25 03:58:51;;;;;;;1.70;1.50;;;4.30;98.20;;;;;;5040299;28;20464;-80
2020/12/25 04:01:18;;;;;;;1.70;1.40;;;4.20;98.20;;;;;;5036561;28;20997;-81
2020/12/25 04:03:45;;;;;;;1.70;1.50;;;4.20;98.20;;;;;;5042393;28;20497;-80
2020/12/25 04:06:11;;;;;;;1.67;1.40;;;4.10;98.20;;;;;;5039008;28;20464;-81
2020/12/25 04:08:38;;;;;;;1.70;1.50;;;4.10;98.20;;;;;;5038574;28;20754;-80
2020/12/25 04:11:05;;;;;;;1.70;1.40;;;4.00;98.20;;;;;;5039352;28;20464;-79
2020/12/25 04:13:32;;;;;;;1.70;1.40;;;4.00;98.20;;;;;;5041458;28;20499;-80
2020/12/25 04:16:00;;;;;;;1.67;1.37;;;4.00;98.20;;;;;;5037754;28;20523;-80
2020/12/25 04:18:27;;;;;;;1.70;1.40;;;4.00;98.20;;;;;;5039912;28;20464;-80
2020/12/25 04:20:54;;;;;;;1.70;1.40;;;3.90;98.20;;;;;;5038024;28;20459;-81
2020/12/25 04:23:20;;;;;;;1.63;1.40;;;3.90;98.20;;;;;;5040088;28;20470;-80
2020/12/25 04:25:47;;;;;;;1.70;1.40;;;3.80;98.20;;;;;;5038049;28;20538;-80
2020/12/25 04:28:13;;;;;;;1.63;1.30;;;3.80;98.20;;;;;;5034045;28;20475;-79
2020/12/25 04:30:40;;;;;;;1.70;1.40;;;3.80;98.20;;;;;;5038889;28;20467;-81
2020/12/25 04:33:06;;;;;;;1.70;1.47;;;3.70;98.20;;;;;;5035198;28;20480;-81
2020/12/25 04:35:32;;;;;;;1.70;1.50;;;3.70;98.20;;;;;;5040224;28;20467;-80
2020/12/25 04:38:00;;;;;;;1.70;1.40;;;3.70;98.20;;;;;;5041620;28;20475;-80
2020/12/25 04:40:27;;;;;;;1.63;1.30;;;3.60;98.20;;;;;;5036606;28;20472;-81
2020/12/25 04:42:55;;;;;;;1.70;1.40;;;3.60;98.20;;;;;;5035663;28;20979;-81
2020/12/25 04:45:22;;;;;;;1.70;1.50;;;3.60;98.20;;;;;;5041268;28;20471;-81
2020/12/25 04:47:49;;;;;;;1.70;1.40;;;3.50;98.20;;;;;;5038652;28;20569;-80
2020/12/25 04:50:15;;;;;;;1.70;1.40;;;3.50;98.20;;;;;;5039495;28;20658;-80
2020/12/25 04:52:42;;;;;;;1.70;1.60;;;3.50;98.20;;;;;;5037333;28;20511;-81
2020/12/25 04:55:09;;;;;;;1.67;1.40;;;3.50;98.20;;;;;;5043610;28;20927;-80
2020/12/25 04:57:35;;;;;;;1.70;1.60;;;3.40;98.20;;;;;;5036574;28;20507;-79
2020/12/25 05:00:15;;;;;;;1.70;1.40;;;3.40;98.20;;;;;;5040020;28;20475;-82
2020/12/25 05:02:41;;;;;;;1.70;1.60;;;3.40;98.20;;;;;;5038740;28;20487;-80
2020/12/25 05:05:09;;;;;;;1.70;1.40;;;3.40;98.20;;;;;;5037373;28;20733;-79
2020/12/25 05:07:37;;;;;;;1.70;1.30;;;3.30;98.20;;;;;;5037388;28;20963;-81
2020/12/25 05:10:07;;;;;;;1.70;1.40;;;3.30;98.20;;;;;;5040137;28;20464;-81
2020/12/25 05:12:35;;;;;;;1.70;1.40;;;3.30;98.20;;;;;;5040996;28;20488;-79
2020/12/25 05:15:06;;;;;;;1.70;1.40;;;3.30;98.20;;;;;;5034991;28;20464;-81
2020/12/25 05:17:32;;;;;;;1.70;1.50;;;3.30;98.20;;;;;;5040371;28;20590;-81
2020/12/25 05:20:00;;;;;;;1.70;1.50;;;3.30;98.20;;;;;;5039325;28;20487;-82
2020/12/25 05:22:26;;;;;;;1.70;1.60;;;3.30;98.20;;;;;;5036847;28;20488;-82
2020/12/25 05:24:53;;;;;;;1.70;1.60;;;3.30;98.20;;;;;;5041666;28;20480;-81
2020/12/25 05:27:23;;;;;;;1.70;1.40;;;3.20;98.20;;;;;;5039192;28;20498;-81
2020/12/25 05:29:51;;;;;;;1.70;1.40;;;3.10;98.20;;;;;;5039407;28;20467;-80
2020/12/25 05:32:18;;;;;;;1.70;1.50;;;3.10;98.20;;;;;;5034849;28;20575;-81
2020/12/25 05:34:46;;;;;;;1.70;1.50;;;3.10;98.20;;;;;;5036911;28;20794;-80
2020/12/25 05:37:13;;;;;;;1.70;1.50;;;3.10;98.20;;;;;;5040335;28;20534;-81
2020/12/25 05:39:39;;;;;;;1.73;1.63;;;3.10;98.20;;;;;;5037216;28;20495;-82
2020/12/25 05:42:07;;;;;;;1.70;1.50;;;3.00;98.20;;;;;;5034836;28;20479;-82
2020/12/25 05:44:40;;;;;;;1.70;1.50;;;3.00;98.20;;;;;;5037228;28;20460;-82
2020/12/25 05:47:08;;;;;;;1.70;1.53;;;3.00;98.20;;;;;;5038380;28;20467;-82
2020/12/25 05:49:35;;;;;;;1.70;1.50;;;2.90;98.20;;;;;;5029058;28;20510;-82
2020/12/25 05:52:01;;;;;;;1.70;1.50;;;2.90;98.20;;;;;;5033016;28;20537;-79
2020/12/25 05:54:28;;;;;;;1.70;1.50;;;2.90;98.20;;;;;;5026668;28;20500;-79
2020/12/25 05:56:56;;;;;;;1.70;1.60;;;2.80;98.20;;;;;;5041416;28;20545;-79
2020/12/25 05:59:25;;;;;;;1.70;1.50;;;2.80;98.20;;;;;;5041289;28;21015;-79
2020/12/25 06:01:54;;;;;;;1.87;1.70;;;2.80;98.20;;;;;;5034461;28;20483;-79
2020/12/25 06:04:24;;;;;;;1.70;1.50;;;2.80;98.20;;;;;;5030473;28;20955;-80
2020/12/25 06:06:50;;;;;;;1.90;1.70;;;2.70;98.20;;;;;;5031454;28;20495;-79
2020/12/25 06:09:18;;;;;;;1.70;1.50;;;2.70;98.20;;;;;;5034277;28;20463;-79
2020/12/25 06:11:48;;;;;;;1.70;1.40;;;2.70;98.20;;;;;;5031960;28;20488;-79
2020/12/25 06:14:15;;;;;;;1.70;1.60;;;2.70;98.20;;;;;;5031991;28;20467;-80
2020/12/25 06:16:52;;;;;;;1.70;1.60;;;2.70;98.20;;;;;;5032304;28;20524;-81
2020/12/25 06:19:26;;;;;;;1.70;1.50;;;2.70;98.20;;;;;;5035049;28;20463;-81
2020/12/25 06:21:57;;;;;;;1.70;1.50;;;2.70;98.20;;;;;;5034700;28;20958;-80
2020/12/25 06:24:30;;;;;;;1.70;1.47;;;2.80;98.20;;;;;;5034308;28;20486;-80
2020/12/25 06:26:59;;;;;;;1.70;1.60;;;2.80;98.20;;;;;;5035436;28;20998;-79
2020/12/25 06:29:27;;;;;;;1.70;1.40;;;2.80;98.20;;;;;;5032429;28;20459;-79
2020/12/25 06:31:57;;;;;;;1.70;1.50;;;2.80;98.20;;;;;;5031734;28;20480;-79
2020/12/25 06:34:38;;;;;;;1.70;1.43;;;2.80;98.20;;;;;;5043353;28;20463;-80
2020/12/25 06:37:11;;;;;;;1.70;1.50;;;2.80;98.20;;;;;;5033891;28;20484;-79
2020/12/25 06:39:37;;;;;;;1.83;1.70;;;2.80;98.20;;;;;;5036374;28;21034;-80
2020/12/25 06:42:04;;;;;;;1.70;1.40;;;2.70;98.20;;;;;;5033118;28;20698;-80
2020/12/25 06:44:34;;;;;;;1.73;1.57;;;2.70;98.20;;;;;;5034549;28;20679;-80
2020/12/25 06:47:02;;;;;;;1.90;1.73;;;2.70;98.20;;;;;;5028079;28;20493;-80
2020/12/25 06:49:36;;;;;;;1.70;1.50;;;2.70;98.20;;;;;;5028079;28;20463;-81
2020/12/25 06:52:02;;;;;;;1.70;1.47;;;2.70;98.20;;;;;;5034773;28;20495;-80
2020/12/25 06:54:39;;;;;;;1.70;1.50;;;2.70;98.20;;;;;;5035144;28;20615;-81
2020/12/25 06:57:09;;;;;;;1.70;1.50;;;2.70;98.20;;;;;;5034560;28;20494;-80
2020/12/25 06:59:36;;;;;;;1.70;1.57;;;2.70;98.20;;;;;;5042732;28;20974;-81
2020/12/25 07:02:04;;;;;;;1.70;1.50;;;2.70;98.20;;;;;;5033933;28;20846;-78
2020/12/25 07:04:32;;;;;;;1.70;1.47;;;2.70;98.20;;;;;;5032823;28;20578;-81
2020/12/25 07:07:01;;;;;;;1.70;1.60;;;2.70;98.20;;;;;;5032991;28;20480;-81
2020/12/25 07:09:39;;;;;;;1.70;1.60;;;2.70;98.20;;;;;;5036929;28;20490;-81
2020/12/25 07:12:07;;;;;;;1.70;1.53;;;2.70;98.20;;;;;;5030589;28;20490;-81
2020/12/25 07:14:34;;;;;;;1.70;1.50;;;2.70;98.20;;;;;;5033273;28;20460;-81
2020/12/25 07:17:00;;;;;;;1.70;1.50;;;2.70;98.20;;;;;;5042574;28;20947;-82
2020/12/25 07:19:27;;;;;;;1.70;1.50;;;2.80;98.20;;;;;;5038041;28;20458;-80
2020/12/25 07:21:53;;;;;;;1.70;1.40;;;2.80;98.20;;;;;;5035027;28;20795;-81
2020/12/25 07:24:20;;;;;;;1.70;1.50;;;2.80;98.20;;;;;;5033162;28;20491;-81
2020/12/25 07:26:48;;;;;;;1.70;1.50;;;2.90;98.20;;;;;;5035786;28;20466;-80
2020/12/25 07:29:16;;;;;;;1.70;1.60;;;2.90;98.20;;;;;;5032788;28;20521;-80
2020/12/25 07:31:46;;;;;;;1.70;1.50;;;2.90;98.20;;;;;;5038972;28;20487;-80
2020/12/25 07:34:17;;;;;;;1.70;1.60;;;2.90;98.20;;;;;;5038034;28;20467;-79
2020/12/25 07:36:44;;;;;;;1.70;1.50;;;2.90;98.20;;;;;;5034389;28;21005;-80
2020/12/25 07:39:10;;;;;;;1.70;1.50;;;3.00;98.20;;;;;;5031105;28;20503;-80
2020/12/25 07:41:37;;;;;;;1.70;1.50;;;3.00;98.20;;;;;;5030971;28;20486;-81
2020/12/25 07:44:04;;;;;;;1.70;1.60;;;3.00;98.20;;;;;;5034532;28;20495;-80
2020/12/25 07:46:32;;;;;;;1.70;1.50;;;3.10;98.20;;;;;;5030880;28;20542;-81
2020/12/25 07:48:59;;;;;;;1.70;1.50;;;3.10;98.20;;;;;;5034938;28;20471;-81
2020/12/25 07:51:26;;;;;;;1.70;1.50;;;3.10;98.20;;;;;;5033133;28;20549;-81
2020/12/25 07:53:55;;;;;;;1.70;1.50;;;3.10;98.20;;;;;;5034105;28;20494;-82
2020/12/25 07:56:23;;;;;;;1.70;1.40;;;3.20;98.20;;;;;;5035893;28;20531;-82
2020/12/25 07:58:51;;;;;;;1.70;1.50;;;3.20;98.20;;;;;;5032474;28;20498;-81
2020/12/25 08:01:22;;;;;;;1.70;1.50;;;3.20;98.20;;;;;;5039313;28;20494;-82
2020/12/25 08:03:49;;;;;;;1.70;1.50;;;3.30;98.20;;;;;;5030579;28;20467;-80
2020/12/25 08:06:18;;;;;;;1.70;1.40;;;3.30;98.20;;;;;;5032111;28;20484;-81
2020/12/25 08:08:48;;;;;;;1.70;1.50;;;3.30;98.20;;;;;;5031103;28;20945;-81
2020/12/25 08:11:16;;;;;;;1.70;1.60;;;3.30;98.20;;;;;;5034719;28;20548;-81
2020/12/25 08:13:43;;;;;;;1.67;1.40;;;3.30;98.20;;;;;;5035545;28;20515;-80
2020/12/25 08:16:10;;;;;;;1.70;1.50;;;3.40;98.20;;;;;;5032982;28;20484;-81
2020/12/25 08:18:37;;;;;;;1.70;1.40;;;3.40;98.20;;;;;;5030056;28;20496;-81
2020/12/25 08:21:04;;;;;;;1.70;1.60;;;3.40;98.20;;;;;;5034132;28;20478;-81
2020/12/25 08:23:35;;;;;;;1.70;1.60;;;3.40;98.20;;;;;;5033946;28;20464;-80
2020/12/25 08:26:03;;;;;;;1.70;1.50;;;3.40;98.20;;;;;;5037359;28;20487;-81
2020/12/25 08:28:31;;;;;;;1.70;1.43;;;3.40;98.20;;;;;;5036799;28;20475;-81
2020/12/25 08:30:58;;;;;;;1.70;1.40;;;3.40;98.20;;;;;;5039491;28;20549;-81
2020/12/25 08:33:25;;;;;;;1.63;1.40;;;3.40;98.20;;;;;;5034038;28;20468;-80
2020/12/25 08:35:53;;;;;;;1.70;1.50;;;3.40;98.20;;;;;;5035389;28;20775;-81
2020/12/25 08:38:20;;;;;;;1.70;1.50;;;3.40;98.20;;;;;;5030396;28;20472;-81
2020/12/25 08:40:48;;;;;;;1.70;1.60;;;3.40;98.20;;;;;;5024851;28;20499;-79
2020/12/25 08:43:17;;;;;;;1.70;1.50;;;3.30;98.20;;;;;;5033138;28;20774;-81
2020/12/25 08:46:03;;;;;;;1.70;1.50;;;3.30;98.20;;;;;;5033144;28;20475;-80
2020/12/25 08:48:30;;;;;;;1.70;1.50;;;3.30;98.20;;;;;;5029841;28;20463;-80
2020/12/25 08:51:07;;;;;;;1.70;1.50;;;3.30;98.20;;;;;;5035890;28;20456;-79
2020/12/25 08:53:34;;;;;;;1.70;1.50;;;3.40;98.20;;;;;;5037421;28;20487;-82
2020/12/25 08:56:14;;;;;;;1.67;1.40;;;3.40;98.20;;;;;;5038826;28;20992;-80
2020/12/25 08:58:41;;;;;;;1.70;1.43;;;3.40;98.20;;;;;;5028282;28;20793;-80
2020/12/25 09:01:07;;;;;;;1.70;1.50;;;3.40;98.20;;;;;;5033610;28;20518;-79
2020/12/25 09:03:42;;;;;;;1.70;1.40;;;3.40;98.20;;;;;;5031677;28;20553;-79
2020/12/25 09:06:10;;;;;;;1.70;1.50;;;3.30;98.20;;;;;;5030184;28;20464;-81
2020/12/25 09:08:38;;;;;;;1.70;1.50;;;3.40;98.20;;;;;;5022783;28;20468;-80
2020/12/25 09:11:08;;;;;;;1.60;1.40;;;3.40;98.20;;;;;;5027388;28;20471;-81
2020/12/25 09:13:34;;;;;;;1.70;1.50;;;3.40;98.20;;;;;;5042195;28;20494;-80
2020/12/25 09:16:01;;;;;;;1.70;1.40;;;3.50;98.20;;;;;;5030031;28;20471;-81
2020/12/25 09:18:27;;;;;;;1.70;1.47;;;3.50;98.20;;;;;;5026601;28;20453;-80
2020/12/25 09:20:54;;;;;;;1.67;1.47;;;3.40;98.20;;;;;;5031135;28;20789;-80
2020/12/25 09:23:21;;;;;;;1.70;1.50;;;3.40;98.20;;;;;;5015999;28;20586;-80
2020/12/25 09:25:48;;;;;;;1.70;1.40;;;3.40;98.20;;;;;;5025983;28;20474;-80
2020/12/25 09:28:14;;;;;;;1.70;1.40;;;3.40;98.20;;;;;;5028493;28;20879;-80
2020/12/25 09:30:49;;;;;;;1.70;1.53;;;3.40;98.20;;;;;;5028959;28;20909;-79
2020/12/25 09:33:17;;;;;;;1.67;1.40;;;3.40;98.20;;;;;;5022755;28;20573;-81
2020/12/25 09:35:43;;;;;;;1.70;1.53;;;3.40;98.20;;;;;;5030822;28;20464;-79
2020/12/25 09:38:10;;;;;;;1.67;1.43;;;3.40;98.20;;;;;;5030891;28;21104;-79
2020/12/25 09:40:37;;;;;;;1.73;1.63;;;3.40;98.20;;;;;;5020741;28;20502;-79
2020/12/25 09:43:03;;;;;;;1.60;1.40;;;3.40;98.20;;;;;;5027128;28;20954;-78
2020/12/25 09:45:30;;;;;;;1.67;1.43;;;3.50;98.20;;;;;;5028890;28;20844;-79
2020/12/25 09:47:56;;;;;;;1.70;1.53;;;3.50;98.20;;;;;;5031020;28;20518;-79
2020/12/25 09:50:23;;;;;;;1.70;1.50;;;3.50;98.20;;;;;;5021564;28;20487;-78
2020/12/25 09:52:50;;;;;;;1.70;1.53;;;3.50;98.20;;;;;;5030544;28;20488;-80
2020/12/25 09:55:16;;;;;;;1.67;1.40;;;3.60;98.20;;;;;;5036402;28;20456;-78
2020/12/25 09:57:44;;;;;;;1.70;1.40;;;3.60;98.20;;;;;;5034872;28;20529;-79
2020/12/25 10:00:12;;;;;;;1.70;1.40;;;3.70;98.20;;;;;;5042424;28;20478;-81
2020/12/25 10:02:39;;;;;;;1.70;1.40;;;3.80;98.20;;;;;;5028871;28;20811;-78
2020/12/25 10:05:06;;;;;;;1.70;1.47;;;3.90;98.20;;;;;;5026672;28;20519;-80
2020/12/25 10:07:33;;;;;;;1.70;1.40;;;4.00;98.20;;;;;;5021990;28;20697;-79
2020/12/25 10:10:00;;;;;;;1.70;1.40;;;4.20;98.20;;;;;;5027402;28;20488;-79
2020/12/25 10:12:26;;;;;;;1.70;1.40;;;4.30;98.20;;;;;;5030832;28;20496;-80
2020/12/25 10:14:54;;;;;;;1.67;1.40;;;4.30;98.20;;;;;;5017509;28;20468;-82
2020/12/25 10:17:20;;;;;;;1.70;1.40;;;4.40;98.20;;;;;;5024256;28;20479;-80
2020/12/25 10:19:47;;;;;;;1.70;1.50;;;4.50;98.20;;;;;;5025280;28;20467;-78
2020/12/25 10:22:13;;;;;;;1.70;1.40;;;4.60;98.20;;;;;;5021712;28;20678;-81
2020/12/25 10:24:40;;;;;;;1.70;1.40;;;4.70;98.20;;;;;;5029350;28;20502;-79
2020/12/25 10:27:07;;;;;;;1.70;1.40;;;4.70;98.20;;;;;;5018434;28;20468;-80
2020/12/25 10:29:33;;;;;;;1.70;1.50;;;4.70;98.20;;;;;;5023927;28;20499;-81
2020/12/25 10:32:01;;;;;;;1.70;1.30;;;4.80;98.20;;;;;;5030017;28;20527;-79
2020/12/25 10:34:27;;;;;;;1.70;1.40;;;4.90;98.20;;;;;;5027285;28;20467;-79
2020/12/25 10:36:54;;;;;;;1.67;1.30;;;4.90;98.20;;;;;;5022920;28;20606;-79
2020/12/25 10:39:21;;;;;;;1.70;1.40;;;5.00;98.20;;;;;;5028221;28;20483;-79
2020/12/25 10:41:47;;;;;;;1.63;1.40;;;5.10;98.20;;;;;;5028610;28;20514;-80
2020/12/25 10:44:13;;;;;;;1.63;1.37;;;5.10;98.20;;;;;;5031422;28;20503;-80
2020/12/25 10:46:43;;;;;;;1.70;1.40;;;5.10;98.20;;;;;;5026641;28;20468;-79
2020/12/25 10:49:10;;;;;;;1.60;1.30;;;5.10;98.20;;;;;;5036605;28;20463;-80
2020/12/25 10:51:48;;;;;;;1.63;1.40;;;5.10;98.20;;;;;;5028280;28;20878;-79
2020/12/25 10:55:06;;;;;;;1.70;1.40;;;5.20;98.20;;;;;;5041188;28;20463;-79
2020/12/25 10:57:33;;;;;;;1.70;1.50;;;5.10;98.20;;;;;;5027669;28;20502;-79
2020/12/25 10:59:59;;;;;;;1.70;1.33;;;5.10;98.20;;;;;;5026682;28;20459;-78
2020/12/25 11:02:25;;;;;;;1.60;1.30;;;5.00;98.20;;;;;;5029348;28;20556;-80
2020/12/25 11:04:53;;;;;;;1.67;1.30;;;5.00;98.20;;;;;;5025253;28;20514;-80
2020/12/25 11:07:20;;;;;;;1.60;1.30;;;5.00;98.20;;;;;;5021432;28;20521;-80
2020/12/25 11:09:46;;;;;;;1.67;1.40;;;5.00;98.20;;;;;;5020257;28;20590;-79
2020/12/25 11:12:13;;;;;;;1.70;1.40;;;5.00;98.20;;;;;;5029901;28;20490;-78
2020/12/25 11:14:41;;;;;;;1.60;1.30;;;5.00;98.20;;;;;;5028031;28;20572;-80
2020/12/25 11:17:08;;;;;;;1.67;1.30;;;5.10;98.20;;;;;;5041542;28;20491;-79
2020/12/25 11:19:34;;;;;;;1.70;1.40;;;5.20;98.20;;;;;;5022609;28;20491;-79
2020/12/25 11:22:01;;;;;;;1.70;1.40;;;5.30;98.20;;;;;;5022509;28;20585;-79
2020/12/25 11:24:28;;;;;;;1.60;1.30;;;5.40;98.20;;;;;;5030850;28;20911;-79
2020/12/25 11:26:54;;;;;;;1.67;1.30;;;5.50;98.20;;;;;;5023879;28;20631;-79
2020/12/25 11:29:21;;;;;;;1.70;1.30;;;5.60;98.20;;;;;;5021675;28;20531;-79
2020/12/25 11:31:47;;;;;;;1.60;1.30;;;5.60;98.20;;;;;;5022001;28;20499;-79
2020/12/25 11:34:14;;;;;;;1.70;1.30;;;5.70;98.20;;;;;;5023870;28;20464;-78
2020/12/25 11:36:40;;;;;;;1.67;1.30;;;5.80;98.20;;;;;;5023091;28;20543;-81
2020/12/25 11:39:07;;;;;;;1.67;1.30;;;5.80;98.20;;;;;;5022421;28;20495;-80
2020/12/25 11:41:35;;;;;;;1.63;1.30;;;5.90;98.20;;;;;;5021848;28;20491;-80
2020/12/25 11:44:01;;;;;;;1.60;1.20;;;5.90;98.20;;;;;;5024293;28;20459;-81
2020/12/25 11:46:28;;;;;;;1.70;1.30;;;5.90;98.20;;;;;;5027144;28;20593;-80
2020/12/25 11:48:55;;;;;;;1.60;1.23;;;5.90;98.20;;;;;;5024884;28;20562;-79
2020/12/25 11:51:23;;;;;;;1.60;1.30;;;6.00;98.20;;;;;;5029867;28;20522;-78
2020/12/25 11:53:50;;;;;;;1.60;1.27;;;6.10;98.20;;;;;;5036883;28;21001;-78
2020/12/25 11:56:22;;;;;;;1.67;1.30;;;6.00;98.20;;;;;;5035734;28;20554;-78
2020/12/25 11:58:49;;;;;;;1.67;1.30;;;6.00;98.20;;;;;;5026889;28;20894;-77
2020/12/25 12:01:15;;;;;;;1.60;1.20;;;5.90;98.20;;;;;;5036713;28;20475;-79
2020/12/25 12:03:42;;;;;;;1.63;1.30;;;5.90;98.20;;;;;;5026913;28;20456;-79
2020/12/25 12:06:09;;;;;;;1.70;1.37;;;5.90;98.20;;;;;;5029706;28;20495;-78
2020/12/25 12:08:36;;;;;;;1.70;1.50;;;5.90;98.20;;;;;;5026604;28;20471;-78
2020/12/25 12:11:02;;;;;;;1.60;1.30;;;5.80;98.20;;;;;;5029184;28;20959;-78
2020/12/25 12:13:30;;;;;;;1.60;1.20;;;5.80;98.20;;;;;;5030363;28;20464;-79
2020/12/25 12:15:56;;;;;;;1.60;1.27;;;5.80;98.20;;;;;;5026004;28;20476;-78
2020/12/25 12:18:40;;;;;;;1.63;1.30;;;5.90;98.20;;;;;;5026679;28;20544;-77
2020/12/25 12:21:14;;;;;;;1.70;1.40;;;5.80;98.20;;;;;;5019380;28;20475;-78
2020/12/25 12:23:40;;;;;;;1.60;1.20;;;5.80;98.20;;;;;;5035866;28;21136;-78
2020/12/25 12:26:07;;;;;;;1.67;1.27;;;5.80;98.20;;;;;;5024943;28;20503;-80
2020/12/25 12:28:34;;;;;;;1.70;1.40;;;5.80;98.20;;;;;;5025130;28;20467;-78
2020/12/25 12:31:01;;;;;;;1.70;1.50;;;5.80;98.20;;;;;;5026987;28;21069;-78
2020/12/25 12:33:27;;;;;;;1.70;1.40;;;5.80;98.20;;;;;;5022484;28;20558;-78
2020/12/25 12:35:54;;;;;;;1.70;1.40;;;5.80;98.20;;;;;;5027226;28;21305;-78
2020/12/25 12:38:20;;;;;;;1.60;1.30;;;5.80;98.20;;;;;;5028561;28;20491;-79
2020/12/25 12:40:47;;;;;;;1.70;1.37;;;5.80;98.20;;;;;;5026941;28;20467;-79
2020/12/25 12:43:13;;;;;;;1.60;1.20;;;5.80;98.20;;;;;;5026664;28;20618;-77
2020/12/25 12:45:41;;;;;;;1.70;1.37;;;5.80;98.20;;;;;;5028892;28;20472;-78
2020/12/25 12:48:07;;;;;;;1.70;1.40;;;5.70;98.20;;;;;;5034300;28;20459;-78
2020/12/25 12:50:34;;;;;;;1.70;1.30;;;5.70;98.20;;;;;;5025628;28;20537;-79
2020/12/25 12:53:03;;;;;;;1.60;1.20;;;5.70;98.20;;;;;;5030088;28;20507;-78
2020/12/25 12:55:29;;;;;;;1.63;1.30;;;5.70;98.20;;;;;;5034968;28;20741;-78
2020/12/25 12:57:56;;;;;;;1.63;1.30;;;5.80;98.20;;;;;;5027282;28;20503;-79
2020/12/25 13:00:22;;;;;;;1.70;1.40;;;5.80;98.20;;;;;;5026840;28;20463;-78